Terminal Aerodrome Forecast
Issued by NWS

Home | Current Version | Previous Version | Text Only | Print | Product List | Glossary On
Versions: 1 2 3 4 5 6 7 8 9 10 11 12 13 14 15 16 17 18 19 20 21
000
FTUS41 KPBZ 231100
TAFBVI
TAF
KBVI 231120Z 2312/2412 VRB03KT 1/4SM FG BKN001
     FM231400 06005KT 2SM BR BKN010
     FM231600 05005KT P6SM BKN040
     FM240400 07005KT 4SM BR OVC007=

USA.gov is the U.S. government's official web portal to all federal, state and local government web resources and services.